createdAt,value
2022-08-28T00:01:37.119Z,31.27
2022-08-28T00:04:06.012Z,31.63
2022-08-28T00:06:34.584Z,31.57
2022-08-28T00:09:03.150Z,32.53
2022-08-28T00:11:31.876Z,33.27
2022-08-28T00:14:04.901Z,25.27
2022-08-28T00:16:33.696Z,28.10
2022-08-28T00:19:02.539Z,32.20
2022-08-28T00:21:33.114Z,36.43
2022-08-28T00:24:02.010Z,29.97
2022-08-28T00:26:48.151Z,39.93
2022-08-28T00:29:18.063Z,28.63
2022-08-28T00:31:46.658Z,43.20
2022-08-28T00:34:15.679Z,33.90
2022-08-28T00:36:44.274Z,38.47
2022-08-28T00:39:12.913Z,41.03
2022-08-28T00:41:45.113Z,31.13
2022-08-28T00:44:16.509Z,28.93
2022-08-28T00:46:49.529Z,36.87
2022-08-28T00:49:21.260Z,33.13
2022-08-28T00:52:08.354Z,33.47
2022-08-28T00:54:56.832Z,26.30
2022-08-28T00:57:30.700Z,37.13
2022-08-28T00:59:59.520Z,27.83
2022-08-28T01:02:29.748Z,30.00
2022-08-28T01:04:58.392Z,37.00
2022-08-28T01:07:27.231Z,35.97
2022-08-28T01:09:56.855Z,41.27
2022-08-28T01:12:28.414Z,36.27
2022-08-28T01:15:00.062Z,33.23
2022-08-28T01:17:32.827Z,34.80
2022-08-28T01:20:05.746Z,32.80
2022-08-28T01:22:38.457Z,32.53
2022-08-28T01:25:13.289Z,45.20
2022-08-28T01:27:43.046Z,40.40
2022-08-28T01:30:14.345Z,36.37
2022-08-28T01:32:47.277Z,38.53
2022-08-28T01:35:18.081Z,32.07
2022-08-28T01:37:47.105Z,39.10
2022-08-28T01:40:23.064Z,36.00
2022-08-28T01:42:51.989Z,42.83
2022-08-28T01:45:22.791Z,39.60
2022-08-28T01:47:51.481Z,43.03
2022-08-28T01:50:22.292Z,38.10
2022-08-28T01:52:50.872Z,35.23
2022-08-28T01:55:21.578Z,38.00
2022-08-28T01:57:52.973Z,34.57
2022-08-28T02:00:28.785Z,36.33
2022-08-28T02:02:58.999Z,37.53
2022-08-28T02:05:31.153Z,45.40
2022-08-28T02:08:01.270Z,48.17
2022-08-28T02:10:32.895Z,43.63
2022-08-28T02:13:01.947Z,39.60
2022-08-28T02:15:32.905Z,37.50
2022-08-28T02:18:01.521Z,47.17
2022-08-28T02:20:30.429Z,42.23
2022-08-28T02:22:59.710Z,35.17
2022-08-28T02:25:30.618Z,37.63
2022-08-28T02:27:59.267Z,32.47
2022-08-28T02:30:28.330Z,42.33
2022-08-28T02:32:57.126Z,33.70
2022-08-28T02:35:25.995Z,33.40
2022-08-28T02:37:55.589Z,36.07
2022-08-28T02:40:25.708Z,39.03
2022-08-28T02:42:55.704Z,32.40
2022-08-28T02:45:24.289Z,36.43
2022-08-28T02:47:54.599Z,29.33
2022-08-28T02:50:24.079Z,29.07
2022-08-28T02:52:53.394Z,34.47
2022-08-28T02:55:22.693Z,26.37
2022-08-28T02:57:52.729Z,37.77
2022-08-28T03:00:25.557Z,32.40
2022-08-28T03:02:54.972Z,24.60
2022-08-28T03:05:26.249Z,31.33
2022-08-28T03:07:56.224Z,25.47
2022-08-28T03:10:25.175Z,33.00
2022-08-28T03:12:53.855Z,31.37
2022-08-28T03:15:23.765Z,34.70
2022-08-28T03:17:52.302Z,24.27
2022-08-28T03:20:20.950Z,23.73
2022-08-28T03:23:07.175Z,37.23
2022-08-28T03:25:35.906Z,34.17
2022-08-28T03:28:04.832Z,24.03
2022-08-28T03:30:34.868Z,32.93
2022-08-28T03:33:03.537Z,29.80
2022-08-28T03:35:32.239Z,27.53
2022-08-28T03:38:01.098Z,26.77
2022-08-28T03:40:29.704Z,25.57
2022-08-28T03:42:58.391Z,28.40
2022-08-28T03:45:28.059Z,20.30
2022-08-28T03:47:58.187Z,26.80
2022-08-28T03:50:27.765Z,25.37
2022-08-28T03:52:59.298Z,26.50
2022-08-28T03:55:28.906Z,28.80
2022-08-28T03:57:57.540Z,19.50
2022-08-28T04:00:26.535Z,31.43
2022-08-28T04:02:55.268Z,31.07
2022-08-28T04:05:25.567Z,33.90
2022-08-28T04:07:54.132Z,34.30
2022-08-28T04:10:22.774Z,25.83
2022-08-28T04:12:51.340Z,23.87
2022-08-28T04:15:20.312Z,27.33
2022-08-28T04:17:54.384Z,28.33
2022-08-28T04:20:24.575Z,24.80
2022-08-28T04:22:55.166Z,25.73
2022-08-28T04:25:24.502Z,24.43
2022-08-28T04:27:53.957Z,24.90
2022-08-28T04:30:22.902Z,31.17
2022-08-28T04:32:51.501Z,24.47
2022-08-28T04:35:20.113Z,20.20
2022-08-28T04:37:50.108Z,19.30
2022-08-28T04:40:19.300Z,29.60
2022-08-28T04:42:47.904Z,19.30
2022-08-28T04:45:16.568Z,16.50
2022-08-28T04:47:45.139Z,29.43
2022-08-28T04:50:13.958Z,18.70
2022-08-28T04:52:43.651Z,25.50
2022-08-28T04:55:14.487Z,12.37
2022-08-28T04:57:46.841Z,22.33
2022-08-28T05:00:16.659Z,18.53
2022-08-28T05:02:46.044Z,30.47
2022-08-28T05:05:14.753Z,13.73
2022-08-28T05:07:43.398Z,22.37
2022-08-28T05:10:15.462Z,15.20
2022-08-28T05:12:44.180Z,10.27
2022-08-28T05:15:14.026Z,25.10
2022-08-28T05:17:42.687Z,14.60
2022-08-28T05:20:12.341Z,15.83
2022-08-28T05:22:41.595Z,22.60
2022-08-28T05:25:11.073Z,20.73
2022-08-28T05:27:41.416Z,12.47
2022-08-28T05:30:12.866Z,13.00
2022-08-28T05:32:45.522Z,14.83
2022-08-28T05:35:16.309Z,16.17
2022-08-28T05:37:49.209Z,15.13
2022-08-28T05:40:18.788Z,18.53
2022-08-28T05:42:52.329Z,15.40
2022-08-28T05:45:23.890Z,10.97
2022-08-28T05:47:55.898Z,10.47
2022-08-28T05:50:24.641Z,20.10
2022-08-28T05:52:58.488Z,16.67
2022-08-28T05:55:27.560Z,13.37
2022-08-28T05:58:20.084Z,10.73
2022-08-28T06:00:52.688Z,8.07
2022-08-28T06:03:21.686Z,18.47
2022-08-28T06:05:59.070Z,11.53
2022-08-28T06:08:28.255Z,10.30
2022-08-28T06:10:57.062Z,10.33
2022-08-28T06:13:30.866Z,12.90
2022-08-28T06:16:00.323Z,17.67
2022-08-28T06:18:29.498Z,9.10
2022-08-28T06:21:03.769Z,7.17
2022-08-28T06:23:33.328Z,8.90
2022-08-28T06:26:07.566Z,9.23
2022-08-28T06:28:37.775Z,11.83
2022-08-28T06:31:26.434Z,10.10
2022-08-28T06:33:57.497Z,10.70
2022-08-28T06:36:28.852Z,15.60
2022-08-28T06:39:00.841Z,11.37
2022-08-28T06:41:32.207Z,7.10
2022-08-28T06:44:05.402Z,14.07
2022-08-28T06:46:36.709Z,18.83
2022-08-28T06:49:09.686Z,16.70
2022-08-28T06:51:38.423Z,13.87
2022-08-28T06:54:07.618Z,15.57
2022-08-28T06:56:38.566Z,8.17
2022-08-28T06:59:08.766Z,16.47
2022-08-28T07:01:38.686Z,9.43
2022-08-28T07:04:09.980Z,16.20
2022-08-28T07:06:43.214Z,12.30
2022-08-28T07:09:12.593Z,15.17
2022-08-28T07:11:41.537Z,17.17
2022-08-28T07:14:11.785Z,20.63
2022-08-28T07:16:41.263Z,12.47
2022-08-28T07:19:11.989Z,16.27
2022-08-28T07:21:42.739Z,16.13
2022-08-28T07:24:13.237Z,13.00
2022-08-28T07:26:43.404Z,14.30
2022-08-28T07:29:14.408Z,13.30
2022-08-28T07:31:45.559Z,14.83
2022-08-28T07:34:15.439Z,16.03
2022-08-28T07:36:44.641Z,7.10
2022-08-28T07:39:15.206Z,25.77
2022-08-28T07:41:44.576Z,12.97
2022-08-28T07:44:34.651Z,19.83
2022-08-28T07:47:06.834Z,9.90
2022-08-28T07:49:37.659Z,21.77
2022-08-28T07:52:07.134Z,28.83
2022-08-28T07:54:36.080Z,12.17
2022-08-28T07:57:04.839Z,13.77
2022-08-28T07:59:36.836Z,28.13
2022-08-28T08:02:06.999Z,17.73
2022-08-28T08:04:35.754Z,7.73
2022-08-28T08:07:05.783Z,22.73
2022-08-28T08:09:38.913Z,24.80
2022-08-28T08:12:08.051Z,11.10
2022-08-28T08:14:41.530Z,18.00
2022-08-28T08:17:11.545Z,17.27
2022-08-28T08:19:40.784Z,22.30
2022-08-28T08:22:09.477Z,14.80
2022-08-28T08:24:38.020Z,11.83
2022-08-28T08:27:07.597Z,18.50
2022-08-28T08:29:38.649Z,10.60
2022-08-28T08:32:12.255Z,10.10
2022-08-28T08:34:42.748Z,22.70
2022-08-28T08:37:13.372Z,21.23
2022-08-28T08:39:43.641Z,21.73
2022-08-28T08:42:22.318Z,18.70
2022-08-28T08:44:53.001Z,10.63
2022-08-28T08:47:29.698Z,25.13
2022-08-28T08:50:00.978Z,19.10
2022-08-28T08:52:53.254Z,16.10
2022-08-28T08:55:28.453Z,19.40
2022-08-28T08:58:07.614Z,18.83
2022-08-28T09:00:44.213Z,14.30
2022-08-28T09:03:22.246Z,14.83
2022-08-28T09:05:56.352Z,19.10
2022-08-28T09:08:32.625Z,16.43
2022-08-28T09:11:04.481Z,13.73
2022-08-28T09:13:42.382Z,26.70
2022-08-28T09:16:21.992Z,13.83
2022-08-28T09:18:55.254Z,9.10
2022-08-28T09:21:30.161Z,20.10
2022-08-28T09:24:05.610Z,8.17
2022-08-28T09:26:35.872Z,17.07
2022-08-28T09:29:07.537Z,13.07
2022-08-28T09:31:39.208Z,12.87
2022-08-28T09:34:35.500Z,12.67
2022-08-28T09:37:09.692Z,14.33
2022-08-28T09:39:46.654Z,15.17
2022-08-28T09:42:40.022Z,20.33
2022-08-28T09:45:18.290Z,18.40
2022-08-28T09:47:49.683Z,11.83
2022-08-28T09:50:28.295Z,21.20
2022-08-28T09:52:59.148Z,17.27
2022-08-28T09:55:34.947Z,14.67
2022-08-28T09:58:04.318Z,13.87
2022-08-28T10:00:37.837Z,13.70
2022-08-28T10:03:15.551Z,19.53
2022-08-28T10:05:57.638Z,14.00
2022-08-28T10:08:43.546Z,7.67
2022-08-28T10:11:20.600Z,14.23
2022-08-28T10:14:01.966Z,21.37
2022-08-28T10:16:42.131Z,14.17
2022-08-28T10:19:22.050Z,11.33
2022-08-28T10:21:57.526Z,9.73
2022-08-28T10:24:44.370Z,12.27
2022-08-28T10:27:24.586Z,12.40
2022-08-28T10:30:07.783Z,21.93
2022-08-28T10:33:05.099Z,20.00
2022-08-28T10:35:45.137Z,12.17
2022-08-28T10:38:19.319Z,17.23
2022-08-28T10:40:56.109Z,17.20
2022-08-28T10:43:34.170Z,14.40
2022-08-28T10:46:06.623Z,16.00
2022-08-28T10:48:41.651Z,15.73
2022-08-28T10:51:19.476Z,8.43
2022-08-28T10:54:09.269Z,14.70
2022-08-28T10:56:42.149Z,14.00
2022-08-28T10:59:10.748Z,11.73
2022-08-28T11:01:42.946Z,16.97
2022-08-28T11:04:25.202Z,11.13
2022-08-28T11:06:57.445Z,9.47
2022-08-28T11:09:41.357Z,16.40
2022-08-28T11:12:38.253Z,8.60
2022-08-28T11:15:40.913Z,10.90
2022-08-28T11:18:40.856Z,15.57
2022-08-28T11:21:20.325Z,10.13
2022-08-28T11:23:58.130Z,17.13
2022-08-28T11:27:03.744Z,14.33
2022-08-28T11:30:19.860Z,13.33
2022-08-28T11:33:06.931Z,17.10
2022-08-28T11:36:00.572Z,19.13
2022-08-28T11:39:11.738Z,11.20
2022-08-28T11:41:57.289Z,16.33
2022-08-28T11:44:41.714Z,17.43
2022-08-28T11:47:56.344Z,11.50
2022-08-28T11:50:33.773Z,15.60
2022-08-28T11:53:41.116Z,15.60
2022-08-28T11:56:41.321Z,9.13
2022-08-28T11:59:34.988Z,13.40
2022-08-28T12:02:54.434Z,11.63
2022-08-28T12:05:48.851Z,14.30
2022-08-28T12:09:09.050Z,11.03
2022-08-28T12:11:59.204Z,10.57
2022-08-28T12:15:08.752Z,11.80
2022-08-28T12:17:53.466Z,13.53
2022-08-28T12:20:49.717Z,12.20
2022-08-28T12:24:03.063Z,10.53
2022-08-28T12:26:39.938Z,11.97
2022-08-28T12:29:21.541Z,13.20
2022-08-28T12:32:22.985Z,15.00
2022-08-28T12:35:16.127Z,15.77
2022-08-28T12:37:53.131Z,7.00
2022-08-28T12:40:25.437Z,9.10
2022-08-28T12:42:58.202Z,18.30
2022-08-28T12:45:30.219Z,22.00
2022-08-28T12:48:02.074Z,11.83
2022-08-28T12:50:36.052Z,12.47
2022-08-28T12:53:07.467Z,11.17
2022-08-28T12:55:38.442Z,5.73
2022-08-28T12:58:12.942Z,10.70
2022-08-28T13:00:54.599Z,10.37
2022-08-28T13:03:23.479Z,8.73
2022-08-28T13:06:03.285Z,10.03
2022-08-28T13:08:32.976Z,11.37
2022-08-28T13:11:01.981Z,14.23
2022-08-28T13:13:36.308Z,13.20
2022-08-28T13:16:06.224Z,12.27
2022-08-28T13:18:42.221Z,10.43
2022-08-28T13:21:36.231Z,9.93
2022-08-28T13:24:38.005Z,9.53
2022-08-28T13:27:22.898Z,17.53
2022-08-28T13:29:59.845Z,10.50
2022-08-28T13:32:30.162Z,10.63
2022-08-28T13:35:38.999Z,8.27
2022-08-28T13:38:11.629Z,12.90
2022-08-28T13:41:00.615Z,9.07
2022-08-28T13:43:31.709Z,9.93
2022-08-28T13:46:00.601Z,17.03
2022-08-28T13:48:30.163Z,5.30
2022-08-28T13:51:05.175Z,8.37
2022-08-28T13:53:40.481Z,13.90
2022-08-28T13:56:09.370Z,13.00
2022-08-28T13:58:37.961Z,8.60
2022-08-28T14:01:06.834Z,11.97
2022-08-28T14:03:37.631Z,6.70
2022-08-28T14:06:08.471Z,8.77
2022-08-28T14:08:37.237Z,8.10
2022-08-28T14:11:07.752Z,10.83
2022-08-28T14:13:36.310Z,9.80
2022-08-28T14:16:07.455Z,18.33
2022-08-28T14:18:36.190Z,18.97
2022-08-28T14:21:07.293Z,6.00
2022-08-28T14:23:35.893Z,10.80
2022-08-28T14:26:07.500Z,6.43
2022-08-28T14:28:36.147Z,18.07
2022-08-28T14:31:12.285Z,9.60
2022-08-28T14:33:45.411Z,10.77
2022-08-28T14:36:17.300Z,7.27
2022-08-28T14:38:46.381Z,19.93
2022-08-28T14:41:17.447Z,10.33
2022-08-28T14:43:46.609Z,17.17
2022-08-28T14:46:17.070Z,7.37
2022-08-28T14:48:45.783Z,7.03
2022-08-28T14:51:14.481Z,7.10
2022-08-28T14:53:43.070Z,9.93
2022-08-28T14:56:12.285Z,7.30
2022-08-28T14:58:42.866Z,8.17
2022-08-28T15:01:11.609Z,10.10
2022-08-28T15:03:40.317Z,9.20
2022-08-28T15:06:10.992Z,11.00
2022-08-28T15:08:39.855Z,5.03
2022-08-28T15:11:10.016Z,7.60
2022-08-28T15:13:38.929Z,11.97
2022-08-28T15:16:16.057Z,9.13
2022-08-28T15:18:46.180Z,13.40
2022-08-28T15:21:20.283Z,4.50
2022-08-28T15:23:51.477Z,6.47
2022-08-28T15:26:20.655Z,7.87
2022-08-28T15:28:55.690Z,8.47
2022-08-28T15:31:25.919Z,5.87
2022-08-28T15:33:54.611Z,11.03
2022-08-28T15:36:25.957Z,8.40
2022-08-28T15:39:12.186Z,7.90
2022-08-28T15:41:40.743Z,14.20
2022-08-28T15:44:14.431Z,9.57
2022-08-28T15:46:52.557Z,9.57
2022-08-28T15:49:23.846Z,8.77
2022-08-28T15:51:52.723Z,7.73
2022-08-28T15:54:22.166Z,10.00
2022-08-28T15:56:53.743Z,10.20
2022-08-28T15:59:22.674Z,8.43
2022-08-28T16:01:56.059Z,6.27
2022-08-28T16:04:24.929Z,7.10
2022-08-28T16:06:56.628Z,6.33
2022-08-28T16:09:29.302Z,8.37
2022-08-28T16:11:57.856Z,8.10
2022-08-28T16:14:26.784Z,7.37
2022-08-28T16:16:56.712Z,12.70
2022-08-28T16:19:25.518Z,7.27
2022-08-28T16:21:54.283Z,10.23
2022-08-28T16:24:22.836Z,10.77
2022-08-28T16:26:51.539Z,10.10
2022-08-28T16:29:20.078Z,5.43
2022-08-28T16:31:50.616Z,18.13
2022-08-28T16:34:20.553Z,7.03
2022-08-28T16:36:50.125Z,6.27
2022-08-28T16:39:18.973Z,7.97
2022-08-28T16:41:50.118Z,4.27
2022-08-28T16:44:20.692Z,8.13
2022-08-28T16:46:50.369Z,9.13
2022-08-28T16:49:21.720Z,8.73
2022-08-28T16:51:50.395Z,6.90
2022-08-28T16:54:19.042Z,5.83
2022-08-28T16:56:48.474Z,7.97
2022-08-28T16:59:23.269Z,7.67
2022-08-28T17:01:53.018Z,5.10
2022-08-28T17:04:23.930Z,10.33
2022-08-28T17:06:52.604Z,10.00
2022-08-28T17:09:24.153Z,9.20
2022-08-28T17:11:52.686Z,11.80
2022-08-28T17:14:21.501Z,13.53
2022-08-28T17:16:50.558Z,9.57
2022-08-28T17:19:20.827Z,5.50
2022-08-28T17:22:08.714Z,5.57
2022-08-28T17:24:37.587Z,10.63
2022-08-28T17:27:06.760Z,5.13
2022-08-28T17:29:36.416Z,10.00
2022-08-28T17:32:07.771Z,8.30
2022-08-28T17:34:36.339Z,8.43
2022-08-28T17:37:07.061Z,8.43
2022-08-28T17:39:36.008Z,9.03
2022-08-28T17:42:05.011Z,5.40
2022-08-28T17:44:35.263Z,6.97
2022-08-28T17:47:04.156Z,6.10
2022-08-28T17:49:32.928Z,9.47
2022-08-28T17:52:02.223Z,19.80
2022-08-28T17:54:32.467Z,7.90
2022-08-28T17:57:01.358Z,9.60
2022-08-28T17:59:29.892Z,8.50
2022-08-28T18:01:58.491Z,11.10
2022-08-28T18:04:27.131Z,10.10
2022-08-28T18:06:55.772Z,10.07
2022-08-28T18:09:25.132Z,11.00
2022-08-28T18:11:55.013Z,7.47
2022-08-28T18:14:23.654Z,15.17
2022-08-28T18:16:52.386Z,6.30
2022-08-28T18:19:21.003Z,8.00
2022-08-28T18:21:49.537Z,6.83
2022-08-28T18:24:18.120Z,16.70
2022-08-28T18:26:47.539Z,10.40
2022-08-28T18:29:17.671Z,11.17
2022-08-28T18:31:46.308Z,8.90
2022-08-28T18:34:15.047Z,11.43
2022-08-28T18:36:43.727Z,23.63
2022-08-28T18:39:13.157Z,15.97
2022-08-28T18:41:44.192Z,15.10
2022-08-28T18:44:14.666Z,12.23
2022-08-28T18:46:45.032Z,9.27
2022-08-28T18:49:14.303Z,12.93
2022-08-28T18:51:44.193Z,17.13
2022-08-28T18:54:14.199Z,16.70
2022-08-28T18:56:45.105Z,15.43
2022-08-28T18:59:13.741Z,7.80
2022-08-28T19:01:43.840Z,12.57
2022-08-28T19:04:12.511Z,9.87
2022-08-28T19:06:44.439Z,7.70
2022-08-28T19:09:20.537Z,9.33
2022-08-28T19:11:49.505Z,15.80
2022-08-28T19:14:18.066Z,13.83
2022-08-28T19:16:48.382Z,11.77
2022-08-28T19:19:16.918Z,13.13
2022-08-28T19:21:47.097Z,9.93
2022-08-28T19:24:18.017Z,16.50
2022-08-28T19:26:47.618Z,13.43
2022-08-28T19:29:16.488Z,12.60
2022-08-28T19:31:45.352Z,12.60
2022-08-28T19:34:15.351Z,12.80
2022-08-28T19:36:44.038Z,13.63
2022-08-28T19:39:13.203Z,14.30
2022-08-28T19:41:43.835Z,10.17
2022-08-28T19:44:12.882Z,9.53
2022-08-28T19:46:41.539Z,12.37
2022-08-28T19:49:10.524Z,13.10
2022-08-28T19:51:41.188Z,14.80
2022-08-28T19:54:11.186Z,8.10
2022-08-28T19:56:40.049Z,13.20
2022-08-28T19:59:10.482Z,10.07
2022-08-28T20:01:43.624Z,17.73
2022-08-28T20:04:17.475Z,16.57
2022-08-28T20:06:48.315Z,21.40
2022-08-28T20:09:17.622Z,11.33
2022-08-28T20:11:47.110Z,25.23
2022-08-28T20:14:17.175Z,15.03
2022-08-28T20:16:48.418Z,23.37
2022-08-28T20:19:17.000Z,8.60
2022-08-28T20:21:50.535Z,11.13
2022-08-28T20:24:22.093Z,8.50
2022-08-28T20:26:51.930Z,12.37
2022-08-28T20:29:21.596Z,23.97
2022-08-28T20:31:50.447Z,12.30
2022-08-28T20:34:21.421Z,16.07
2022-08-28T20:36:51.731Z,17.00
2022-08-28T20:39:21.402Z,9.70
2022-08-28T20:41:50.993Z,8.40
2022-08-28T20:44:21.626Z,8.83
2022-08-28T20:46:51.364Z,17.40
2022-08-28T20:49:22.564Z,14.73
2022-08-28T20:51:57.086Z,9.40
2022-08-28T20:54:29.259Z,13.23
2022-08-28T20:57:01.849Z,23.13
2022-08-28T20:59:39.270Z,15.20
2022-08-28T21:02:10.443Z,16.70
2022-08-28T21:04:40.465Z,11.50
2022-08-28T21:07:10.926Z,8.30
2022-08-28T21:10:05.478Z,17.97
2022-08-28T21:12:28.800Z,10.27
2022-08-28T21:14:57.429Z,14.93
2022-08-28T21:17:30.012Z,14.17
2022-08-28T21:20:00.282Z,8.90
2022-08-28T21:22:31.494Z,16.13
2022-08-28T21:25:00.207Z,10.50
2022-08-28T21:27:29.160Z,13.30
2022-08-28T21:29:58.632Z,16.43
2022-08-28T21:32:27.467Z,11.73
2022-08-28T21:34:56.256Z,11.60
2022-08-28T21:37:25.251Z,25.30
2022-08-28T21:39:56.584Z,14.50
2022-08-28T21:42:25.661Z,12.60
2022-08-28T21:44:56.822Z,9.87
2022-08-28T21:47:26.540Z,8.83
2022-08-28T21:49:56.889Z,15.60
2022-08-28T21:52:28.466Z,10.20
2022-08-28T21:55:00.757Z,13.60
2022-08-28T21:57:30.044Z,8.97
2022-08-28T21:59:59.523Z,16.70
2022-08-28T22:02:28.527Z,11.67
2022-08-28T22:04:57.139Z,17.67
2022-08-28T22:07:25.770Z,23.60
2022-08-28T22:09:54.355Z,13.63
2022-08-28T22:12:24.370Z,12.80
2022-08-28T22:14:53.059Z,14.70
2022-08-28T22:17:21.611Z,10.97
2022-08-28T22:19:50.205Z,9.50
2022-08-28T22:22:36.309Z,8.47
2022-08-28T22:25:05.352Z,12.03
2022-08-28T22:27:35.600Z,10.70
2022-08-28T22:30:04.275Z,14.20
2022-08-28T22:32:33.360Z,16.03
2022-08-28T22:35:01.996Z,17.80
2022-08-28T22:37:30.719Z,10.43
2022-08-28T22:40:00.209Z,14.50
2022-08-28T22:42:28.898Z,16.63
2022-08-28T22:44:59.625Z,14.57
2022-08-28T22:47:28.507Z,8.70
2022-08-28T22:49:58.479Z,20.83
2022-08-28T22:52:27.772Z,18.43
2022-08-28T22:54:56.256Z,9.23
2022-08-28T22:57:25.219Z,16.83
2022-08-28T22:59:54.006Z,8.30
2022-08-28T23:02:27.287Z,16.87
2022-08-28T23:04:56.114Z,11.83
2022-08-28T23:07:24.786Z,17.47
2022-08-28T23:09:53.435Z,18.30
2022-08-28T23:12:22.096Z,14.17
2022-08-28T23:14:50.686Z,10.33
2022-08-28T23:17:19.565Z,9.97
2022-08-28T23:19:49.815Z,9.83
2022-08-28T23:22:19.266Z,7.73
2022-08-28T23:24:48.760Z,18.63
2022-08-28T23:27:35.716Z,18.00
2022-08-28T23:30:05.994Z,11.20
2022-08-28T23:32:34.647Z,11.70
2022-08-28T23:35:07.026Z,20.43
2022-08-28T23:37:36.980Z,14.73
2022-08-28T23:40:07.896Z,14.70
2022-08-28T23:42:37.100Z,17.17
2022-08-28T23:45:08.261Z,19.83
2022-08-28T23:47:40.687Z,9.73
2022-08-28T23:50:15.058Z,12.67
2022-08-28T23:52:44.181Z,20.03
2022-08-28T23:55:14.781Z,9.37
2022-08-28T23:57:44.126Z,29.13
